sensor_id;sensor_type;location;lat;lon;timestamp;P1;durP1;ratioP1;P2;durP2;ratioP2
20421;SDS011;10370;53.102;18.034;2022-12-10T00:04:40;148.60;;;49.13;;
20421;SDS011;10370;53.102;18.034;2022-12-10T00:10:05;145.40;;;46.03;;
20421;SDS011;10370;53.102;18.034;2022-12-10T00:15:29;143.63;;;47.13;;
20421;SDS011;10370;53.102;18.034;2022-12-10T00:20:50;144.93;;;47.27;;
20421;SDS011;10370;53.102;18.034;2022-12-10T00:26:13;133.10;;;44.53;;
20421;SDS011;10370;53.102;18.034;2022-12-10T00:31:36;139.57;;;44.57;;
20421;SDS011;10370;53.102;18.034;2022-12-10T00:36:58;141.80;;;44.63;;
20421;SDS011;10370;53.102;18.034;2022-12-10T00:42:22;138.87;;;45.07;;
20421;SDS011;10370;53.102;18.034;2022-12-10T00:47:43;140.97;;;45.20;;
20421;SDS011;10370;53.102;18.034;2022-12-10T00:53:04;139.70;;;43.83;;
20421;SDS011;10370;53.102;18.034;2022-12-10T00:58:32;135.70;;;43.37;;
20421;SDS011;10370;53.102;18.034;2022-12-10T01:03:56;133.77;;;43.97;;
20421;SDS011;10370;53.102;18.034;2022-12-10T01:09:26;129.63;;;44.53;;
20421;SDS011;10370;53.102;18.034;2022-12-10T01:14:48;138.60;;;44.00;;
20421;SDS011;10370;53.102;18.034;2022-12-10T01:20:09;123.27;;;43.73;;
20421;SDS011;10370;53.102;18.034;2022-12-10T01:25:30;136.07;;;43.73;;
20421;SDS011;10370;53.102;18.034;2022-12-10T01:30:51;128.80;;;42.43;;
20421;SDS011;10370;53.102;18.034;2022-12-10T01:36:13;135.90;;;44.20;;
20421;SDS011;10370;53.102;18.034;2022-12-10T01:41:45;120.40;;;43.43;;
20421;SDS011;10370;53.102;18.034;2022-12-10T01:47:06;123.60;;;41.80;;
20421;SDS011;10370;53.102;18.034;2022-12-10T01:52:28;123.37;;;43.10;;
20421;SDS011;10370;53.102;18.034;2022-12-10T01:57:49;111.97;;;42.67;;
20421;SDS011;10370;53.102;18.034;2022-12-10T02:03:15;112.37;;;41.33;;
20421;SDS011;10370;53.102;18.034;2022-12-10T02:08:47;114.77;;;40.93;;
20421;SDS011;10370;53.102;18.034;2022-12-10T02:14:29;115.97;;;41.23;;
20421;SDS011;10370;53.102;18.034;2022-12-10T02:20:01;108.37;;;41.00;;
20421;SDS011;10370;53.102;18.034;2022-12-10T02:25:29;105.83;;;40.17;;
20421;SDS011;10370;53.102;18.034;2022-12-10T02:31:03;113.07;;;41.73;;
20421;SDS011;10370;53.102;18.034;2022-12-10T02:36:27;111.30;;;40.53;;
20421;SDS011;10370;53.102;18.034;2022-12-10T02:41:52;106.97;;;40.70;;
20421;SDS011;10370;53.102;18.034;2022-12-10T02:47:15;101.63;;;38.93;;
20421;SDS011;10370;53.102;18.034;2022-12-10T02:52:38;88.60;;;37.80;;
20421;SDS011;10370;53.102;18.034;2022-12-10T02:58:06;101.10;;;39.07;;
20421;SDS011;10370;53.102;18.034;2022-12-10T03:03:46;93.30;;;37.57;;
20421;SDS011;10370;53.102;18.034;2022-12-10T03:09:22;103.10;;;39.33;;
20421;SDS011;10370;53.102;18.034;2022-12-10T03:14:49;91.53;;;36.33;;
20421;SDS011;10370;53.102;18.034;2022-12-10T03:20:12;94.53;;;36.83;;
20421;SDS011;10370;53.102;18.034;2022-12-10T03:25:35;85.17;;;36.00;;
20421;SDS011;10370;53.102;18.034;2022-12-10T03:30:57;87.43;;;35.20;;
20421;SDS011;10370;53.102;18.034;2022-12-10T03:36:18;88.63;;;35.83;;
20421;SDS011;10370;53.102;18.034;2022-12-10T03:41:40;85.97;;;35.73;;
20421;SDS011;10370;53.102;18.034;2022-12-10T03:47:02;81.87;;;33.33;;
20421;SDS011;10370;53.102;18.034;2022-12-10T03:52:25;83.30;;;33.93;;
20421;SDS011;10370;53.102;18.034;2022-12-10T03:57:46;80.10;;;33.40;;
20421;SDS011;10370;53.102;18.034;2022-12-10T04:03:08;78.93;;;32.07;;
20421;SDS011;10370;53.102;18.034;2022-12-10T04:08:30;82.37;;;32.97;;
20421;SDS011;10370;53.102;18.034;2022-12-10T04:13:50;84.40;;;33.80;;
20421;SDS011;10370;53.102;18.034;2022-12-10T04:19:31;77.03;;;32.77;;
20421;SDS011;10370;53.102;18.034;2022-12-10T04:24:52;73.47;;;31.63;;
20421;SDS011;10370;53.102;18.034;2022-12-10T04:30:48;78.80;;;31.47;;
20421;SDS011;10370;53.102;18.034;2022-12-10T04:36:09;76.73;;;32.83;;
20421;SDS011;10370;53.102;18.034;2022-12-10T04:41:30;73.73;;;32.07;;
20421;SDS011;10370;53.102;18.034;2022-12-10T04:46:52;77.63;;;32.60;;
20421;SDS011;10370;53.102;18.034;2022-12-10T04:52:15;77.23;;;30.80;;
20421;SDS011;10370;53.102;18.034;2022-12-10T04:57:37;76.67;;;32.50;;
20421;SDS011;10370;53.102;18.034;2022-12-10T05:02:58;73.80;;;31.23;;
20421;SDS011;10370;53.102;18.034;2022-12-10T05:08:19;80.30;;;31.53;;
20421;SDS011;10370;53.102;18.034;2022-12-10T05:13:40;79.60;;;31.37;;
20421;SDS011;10370;53.102;18.034;2022-12-10T05:19:02;81.93;;;30.70;;
20421;SDS011;10370;53.102;18.034;2022-12-10T05:24:36;77.93;;;30.20;;
20421;SDS011;10370;53.102;18.034;2022-12-10T05:37:31;78.17;;;31.57;;
20421;SDS011;10370;53.102;18.034;2022-12-10T05:43:46;72.43;;;30.33;;
20421;SDS011;10370;53.102;18.034;2022-12-10T05:56:52;77.93;;;32.13;;
20421;SDS011;10370;53.102;18.034;2022-12-10T06:03:18;71.73;;;31.33;;
20421;SDS011;10370;53.102;18.034;2022-12-10T06:09:43;78.20;;;31.77;;
20421;SDS011;10370;53.102;18.034;2022-12-10T06:15:09;71.77;;;31.33;;
20421;SDS011;10370;53.102;18.034;2022-12-10T06:20:30;78.17;;;31.00;;
20421;SDS011;10370;53.102;18.034;2022-12-10T06:25:51;69.63;;;28.67;;
20421;SDS011;10370;53.102;18.034;2022-12-10T06:31:13;70.00;;;28.53;;
20421;SDS011;10370;53.102;18.034;2022-12-10T06:36:35;68.13;;;27.57;;
20421;SDS011;10370;53.102;18.034;2022-12-10T06:41:59;67.10;;;27.83;;
20421;SDS011;10370;53.102;18.034;2022-12-10T06:48:04;61.07;;;26.20;;
20421;SDS011;10370;53.102;18.034;2022-12-10T06:59:45;68.20;;;28.20;;
20421;SDS011;10370;53.102;18.034;2022-12-10T07:05:09;63.93;;;26.73;;
20421;SDS011;10370;53.102;18.034;2022-12-10T07:10:30;61.77;;;26.43;;
20421;SDS011;10370;53.102;18.034;2022-12-10T07:15:52;63.77;;;25.87;;
20421;SDS011;10370;53.102;18.034;2022-12-10T07:21:14;56.87;;;23.17;;
20421;SDS011;10370;53.102;18.034;2022-12-10T07:26:39;58.20;;;22.63;;
20421;SDS011;10370;53.102;18.034;2022-12-10T07:32:01;54.70;;;23.43;;
20421;SDS011;10370;53.102;18.034;2022-12-10T07:37:23;55.70;;;24.17;;
20421;SDS011;10370;53.102;18.034;2022-12-10T07:42:45;56.43;;;24.57;;
20421;SDS011;10370;53.102;18.034;2022-12-10T07:48:10;57.90;;;25.10;;
20421;SDS011;10370;53.102;18.034;2022-12-10T07:53:52;53.87;;;24.47;;
20421;SDS011;10370;53.102;18.034;2022-12-10T08:05:02;60.70;;;24.90;;
20421;SDS011;10370;53.102;18.034;2022-12-10T08:10:25;59.70;;;25.47;;
20421;SDS011;10370;53.102;18.034;2022-12-10T08:15:59;57.07;;;25.50;;
20421;SDS011;10370;53.102;18.034;2022-12-10T08:21:24;61.17;;;25.30;;
20421;SDS011;10370;53.102;18.034;2022-12-10T08:26:52;57.73;;;24.00;;
20421;SDS011;10370;53.102;18.034;2022-12-10T08:32:17;61.30;;;25.43;;
20421;SDS011;10370;53.102;18.034;2022-12-10T08:37:40;54.20;;;23.80;;
20421;SDS011;10370;53.102;18.034;2022-12-10T08:43:02;54.60;;;23.70;;
20421;SDS011;10370;53.102;18.034;2022-12-10T08:48:25;59.87;;;26.23;;
20421;SDS011;10370;53.102;18.034;2022-12-10T08:53:53;59.43;;;24.27;;
20421;SDS011;10370;53.102;18.034;2022-12-10T08:59:43;54.87;;;23.50;;
20421;SDS011;10370;53.102;18.034;2022-12-10T09:05:10;51.07;;;21.77;;
20421;SDS011;10370;53.102;18.034;2022-12-10T09:10:31;49.63;;;22.07;;
20421;SDS011;10370;53.102;18.034;2022-12-10T09:15:52;52.20;;;23.40;;
20421;SDS011;10370;53.102;18.034;2022-12-10T09:21:14;50.57;;;22.10;;
20421;SDS011;10370;53.102;18.034;2022-12-10T09:26:40;54.23;;;23.33;;
20421;SDS011;10370;53.102;18.034;2022-12-10T09:32:01;56.10;;;23.17;;
20421;SDS011;10370;53.102;18.034;2022-12-10T09:37:22;54.67;;;24.20;;
20421;SDS011;10370;53.102;18.034;2022-12-10T09:48:13;54.63;;;23.63;;
20421;SDS011;10370;53.102;18.034;2022-12-10T09:53:38;41.57;;;18.20;;
20421;SDS011;10370;53.102;18.034;2022-12-10T09:59:02;35.97;;;16.60;;
20421;SDS011;10370;53.102;18.034;2022-12-10T10:04:31;38.40;;;16.77;;
20421;SDS011;10370;53.102;18.034;2022-12-10T10:09:55;64.53;;;27.53;;
20421;SDS011;10370;53.102;18.034;2022-12-10T10:15:22;42.67;;;18.50;;
20421;SDS011;10370;53.102;18.034;2022-12-10T10:20:47;37.67;;;17.40;;
20421;SDS011;10370;53.102;18.034;2022-12-10T10:26:09;35.10;;;16.07;;
20421;SDS011;10370;53.102;18.034;2022-12-10T10:31:31;41.10;;;18.40;;
20421;SDS011;10370;53.102;18.034;2022-12-10T10:36:57;47.90;;;21.37;;
20421;SDS011;10370;53.102;18.034;2022-12-10T10:42:33;36.73;;;16.00;;
20421;SDS011;10370;53.102;18.034;2022-12-10T10:48:10;32.67;;;15.20;;
20421;SDS011;10370;53.102;18.034;2022-12-10T10:53:45;38.20;;;17.80;;
20421;SDS011;10370;53.102;18.034;2022-12-10T11:51:48;61.63;;;27.63;;
20421;SDS011;10370;53.102;18.034;2022-12-10T11:58:11;61.53;;;29.03;;
20421;SDS011;10370;53.102;18.034;2022-12-10T12:35:36;82.00;;;33.40;;
20421;SDS011;10370;53.102;18.034;2022-12-10T12:41:10;61.33;;;27.47;;
20421;SDS011;10370;53.102;18.034;2022-12-10T12:46:47;39.43;;;19.13;;
20421;SDS011;10370;53.102;18.034;2022-12-10T12:58:38;48.27;;;22.87;;
20421;SDS011;10370;53.102;18.034;2022-12-10T13:05:36;41.63;;;20.17;;
20421;SDS011;10370;53.102;18.034;2022-12-10T13:44:48;67.97;;;27.87;;
20421;SDS011;10370;53.102;18.034;2022-12-10T14:56:48;62.93;;;26.97;;
20421;SDS011;10370;53.102;18.034;2022-12-10T15:02:45;49.53;;;23.77;;
20421;SDS011;10370;53.102;18.034;2022-12-10T15:09:01;45.50;;;20.93;;
20421;SDS011;10370;53.102;18.034;2022-12-10T15:14:45;52.90;;;22.57;;
20421;SDS011;10370;53.102;18.034;2022-12-10T15:20:38;56.53;;;24.77;;
20421;SDS011;10370;53.102;18.034;2022-12-10T15:32:50;50.97;;;23.03;;
20421;SDS011;10370;53.102;18.034;2022-12-10T16:53:26;74.17;;;27.30;;
20421;SDS011;10370;53.102;18.034;2022-12-10T16:58:48;81.83;;;29.80;;
20421;SDS011;10370;53.102;18.034;2022-12-10T17:04:13;53.67;;;24.23;;
20421;SDS011;10370;53.102;18.034;2022-12-10T17:09:50;75.27;;;27.67;;
20421;SDS011;10370;53.102;18.034;2022-12-10T17:15:25;66.00;;;25.70;;
20421;SDS011;10370;53.102;18.034;2022-12-10T17:20:47;58.83;;;24.10;;
20421;SDS011;10370;53.102;18.034;2022-12-10T17:26:15;56.17;;;25.63;;
20421;SDS011;10370;53.102;18.034;2022-12-10T17:31:47;69.40;;;27.60;;
20421;SDS011;10370;53.102;18.034;2022-12-10T17:37:12;124.53;;;40.13;;
20421;SDS011;10370;53.102;18.034;2022-12-10T17:42:39;66.47;;;27.53;;
20421;SDS011;10370;53.102;18.034;2022-12-10T17:55:09;93.33;;;46.33;;
20421;SDS011;10370;53.102;18.034;2022-12-10T19:19:41;118.47;;;38.90;;
20421;SDS011;10370;53.102;18.034;2022-12-10T19:25:32;89.30;;;30.50;;
20421;SDS011;10370;53.102;18.034;2022-12-10T19:31:05;133.47;;;38.33;;
20421;SDS011;10370;53.102;18.034;2022-12-10T19:36:47;106.20;;;30.83;;
20421;SDS011;10370;53.102;18.034;2022-12-10T19:42:21;96.13;;;32.47;;
20421;SDS011;10370;53.102;18.034;2022-12-10T19:54:38;66.07;;;25.87;;
20421;SDS011;10370;53.102;18.034;2022-12-10T20:00:21;53.93;;;23.00;;
20421;SDS011;10370;53.102;18.034;2022-12-10T20:24:32;71.60;;;25.63;;
20421;SDS011;10370;53.102;18.034;2022-12-10T20:30:42;70.17;;;24.60;;
20421;SDS011;10370;53.102;18.034;2022-12-10T20:42:14;54.03;;;21.33;;
20421;SDS011;10370;53.102;18.034;2022-12-10T20:47:36;82.17;;;27.07;;
20421;SDS011;10370;53.102;18.034;2022-12-10T20:53:38;73.43;;;25.53;;
20421;SDS011;10370;53.102;18.034;2022-12-10T22:12:20;37.03;;;16.60;;
20421;SDS011;10370;53.102;18.034;2022-12-10T22:18:51;36.27;;;16.70;;
20421;SDS011;10370;53.102;18.034;2022-12-10T22:24:11;45.60;;;17.00;;
20421;SDS011;10370;53.102;18.034;2022-12-10T22:30:10;37.33;;;17.03;;
20421;SDS011;10370;53.102;18.034;2022-12-10T22:35:32;38.87;;;16.13;;
20421;SDS011;10370;53.102;18.034;2022-12-10T22:41:03;35.47;;;15.77;;
20421;SDS011;10370;53.102;18.034;2022-12-10T22:46:28;25.27;;;13.37;;
20421;SDS011;10370;53.102;18.034;2022-12-10T22:51:57;29.60;;;14.20;;
20421;SDS011;10370;53.102;18.034;2022-12-10T22:57:24;31.17;;;14.20;;
20421;SDS011;10370;53.102;18.034;2022-12-10T23:02:45;30.77;;;14.07;;
20421;SDS011;10370;53.102;18.034;2022-12-10T23:08:06;27.63;;;13.40;;
20421;SDS011;10370;53.102;18.034;2022-12-10T23:13:27;27.73;;;13.77;;
20421;SDS011;10370;53.102;18.034;2022-12-10T23:18:59;31.23;;;13.60;;
20421;SDS011;10370;53.102;18.034;2022-12-10T23:24:35;36.57;;;16.47;;
20421;SDS011;10370;53.102;18.034;2022-12-10T23:30:02;31.87;;;14.57;;
20421;SDS011;10370;53.102;18.034;2022-12-10T23:35:23;31.60;;;14.90;;
20421;SDS011;10370;53.102;18.034;2022-12-10T23:40:44;37.10;;;15.77;;
20421;SDS011;10370;53.102;18.034;2022-12-10T23:46:06;35.93;;;16.00;;
20421;SDS011;10370;53.102;18.034;2022-12-10T23:51:28;36.60;;;16.50;;
20421;SDS011;10370;53.102;18.034;2022-12-10T23:56:49;34.00;;;16.33;;
